createdAt,value
2018-03-17T00:01:41.203Z,1.20
2018-03-17T00:04:10.734Z,1.30
2018-03-17T00:06:41.270Z,1.20
2018-03-17T00:09:11.279Z,1.20
2018-03-17T00:11:41.005Z,1.20
2018-03-17T00:14:11.447Z,1.20
2018-03-17T00:16:41.530Z,1.20
2018-03-17T00:19:11.342Z,1.20
2018-03-17T00:21:40.745Z,1.10
2018-03-17T00:24:10.610Z,1.10
2018-03-17T00:26:49.682Z,1.20
2018-03-17T00:29:24.369Z,1.10
2018-03-17T00:31:55.887Z,1.10
2018-03-17T00:34:25.706Z,1.10
2018-03-17T00:36:56.018Z,1.10
2018-03-17T00:39:25.615Z,1.10
2018-03-17T00:41:55.816Z,1.10
2018-03-17T00:44:26.929Z,1.00
2018-03-17T00:46:55.775Z,1.00
2018-03-17T00:49:25.399Z,1.00
2018-03-17T00:51:56.966Z,1.00
2018-03-17T00:54:26.405Z,1.00
2018-03-17T00:57:09.191Z,1.00
2018-03-17T00:59:54.326Z,1.00
2018-03-17T01:02:25.404Z,1.00
2018-03-17T01:04:57.105Z,0.90
2018-03-17T01:07:55.582Z,0.90
2018-03-17T01:10:25.650Z,0.90
2018-03-17T01:13:08.622Z,0.80
2018-03-17T01:15:38.291Z,0.80
2018-03-17T01:18:05.851Z,0.80
2018-03-17T01:20:34.135Z,0.80
2018-03-17T01:23:02.433Z,0.80
2018-03-17T01:25:30.706Z,0.70
2018-03-17T01:27:58.997Z,0.80
2018-03-17T01:30:27.284Z,0.70
2018-03-17T01:32:57.097Z,0.60
2018-03-17T01:35:27.278Z,0.60
2018-03-17T01:37:55.981Z,0.50
2018-03-17T01:40:26.623Z,0.50
2018-03-17T01:42:57.130Z,0.40
2018-03-17T01:45:26.002Z,0.40
2018-03-17T01:47:56.114Z,0.40
2018-03-17T01:50:25.774Z,0.30
2018-03-17T01:52:55.241Z,0.30
2018-03-17T01:55:30.778Z,0.20
2018-03-17T01:57:59.087Z,0.20
2018-03-17T02:00:27.130Z,0.20
2018-03-17T02:03:02.190Z,0.20
2018-03-17T02:05:29.693Z,0.10
2018-03-17T02:07:57.982Z,0.00
2018-03-17T02:10:27.223Z,-0.10
2018-03-17T02:12:56.995Z,-0.10
2018-03-17T02:15:27.523Z,0.00
2018-03-17T02:17:56.326Z,-0.10
2018-03-17T02:20:26.370Z,-0.10
2018-03-17T02:22:56.762Z,-0.10
2018-03-17T02:25:27.094Z,-0.20
2018-03-17T02:27:57.101Z,-0.20
2018-03-17T02:30:25.817Z,-0.20
2018-03-17T02:32:56.770Z,-0.20
2018-03-17T02:35:26.230Z,-0.30
2018-03-17T02:37:57.087Z,-0.30
2018-03-17T02:40:27.258Z,-0.40
2018-03-17T02:42:54.808Z,-0.40
2018-03-17T02:45:26.903Z,-0.40
2018-03-17T02:47:57.281Z,-0.40
2018-03-17T02:50:25.572Z,-0.40
2018-03-17T02:52:56.373Z,-0.40
2018-03-17T02:55:27.105Z,-0.40
2018-03-17T02:57:54.677Z,-0.40
2018-03-17T03:00:26.350Z,-0.40
2018-03-17T03:02:57.147Z,-0.50
2018-03-17T03:05:27.000Z,-0.40
2018-03-17T03:07:55.859Z,-0.40
2018-03-17T03:10:26.416Z,-0.40
2018-03-17T03:12:57.154Z,-0.40
2018-03-17T03:15:24.826Z,-0.50
2018-03-17T03:17:56.398Z,-0.40
2018-03-17T03:20:26.917Z,-0.50
2018-03-17T03:22:57.297Z,-0.60
2018-03-17T03:25:27.034Z,-0.50
2018-03-17T03:27:54.542Z,-0.50
2018-03-17T03:30:25.355Z,-0.50
2018-03-17T03:32:57.571Z,-0.50
2018-03-17T03:35:25.106Z,-0.50
2018-03-17T03:37:59.538Z,-0.60
2018-03-17T03:40:27.754Z,-0.60
2018-03-17T03:42:57.790Z,-0.70
2018-03-17T03:45:25.305Z,-0.70
2018-03-17T03:47:56.328Z,-0.60
2018-03-17T03:50:27.494Z,-0.60
2018-03-17T03:52:57.286Z,-0.70
2018-03-17T03:55:26.688Z,-0.70
2018-03-17T03:57:57.261Z,-0.70
2018-03-17T04:00:27.490Z,-0.80
2018-03-17T04:02:57.511Z,-0.70
2018-03-17T04:05:28.312Z,-0.70
2018-03-17T04:07:57.568Z,-0.60
2018-03-17T04:10:27.613Z,-0.60
2018-03-17T04:12:57.670Z,-0.60
2018-03-17T04:15:27.913Z,-0.60
2018-03-17T04:17:57.937Z,-0.60
2018-03-17T04:20:27.618Z,-0.60
2018-03-17T04:23:00.931Z,-0.60
2018-03-17T04:25:28.472Z,-0.60
2018-03-17T04:28:07.474Z,-0.70
2018-03-17T04:30:37.972Z,-0.60
2018-03-17T04:33:07.042Z,-0.70
2018-03-17T04:35:37.985Z,-0.60
2018-03-17T04:38:07.916Z,-0.60
2018-03-17T04:40:36.881Z,-0.60
2018-03-17T04:43:13.390Z,-0.60
2018-03-17T04:45:40.943Z,-0.70
2018-03-17T04:48:08.469Z,-0.60
2018-03-17T04:50:42.694Z,-0.60
2018-03-17T04:53:10.217Z,-0.70
2018-03-17T04:55:38.485Z,-0.80
2018-03-17T04:58:07.946Z,-0.80
2018-03-17T05:00:38.086Z,-0.80
2018-03-17T05:03:08.145Z,-0.90
2018-03-17T05:05:35.790Z,-0.90
2018-03-17T05:08:05.041Z,-0.90
2018-03-17T05:10:37.773Z,-0.80
2018-03-17T05:13:08.156Z,-0.80
2018-03-17T05:15:41.029Z,-0.90
2018-03-17T05:18:08.560Z,-1.00
2018-03-17T05:20:37.984Z,-1.00
2018-03-17T05:23:07.890Z,-1.00
2018-03-17T05:25:38.093Z,-1.00
2018-03-17T05:28:05.609Z,-1.10
2018-03-17T05:30:33.110Z,-1.20
2018-03-17T05:33:00.630Z,-1.20
2018-03-17T05:35:28.972Z,-1.30
2018-03-17T05:37:58.243Z,-1.30
2018-03-17T05:40:34.310Z,-1.30
2018-03-17T05:43:02.600Z,-1.30
2018-03-17T05:45:30.106Z,-1.30
2018-03-17T05:47:57.654Z,-1.20
2018-03-17T05:50:27.517Z,-1.20
2018-03-17T05:52:57.366Z,-1.20
2018-03-17T05:55:27.696Z,-1.20
2018-03-17T05:57:57.197Z,-1.20
2018-03-17T06:00:31.603Z,-1.20
2018-03-17T06:02:59.130Z,-1.10
2018-03-17T06:05:28.634Z,-1.00
2018-03-17T06:07:58.433Z,-1.00
2018-03-17T06:10:26.493Z,-1.10
2018-03-17T06:12:58.274Z,-1.10
2018-03-17T06:15:28.427Z,-1.00
2018-03-17T06:18:07.102Z,-1.10
2018-03-17T06:20:34.714Z,-1.10
2018-03-17T06:23:02.992Z,-1.20
2018-03-17T06:25:31.277Z,-1.10
2018-03-17T06:27:58.806Z,-1.20
2018-03-17T06:30:27.561Z,-1.20
2018-03-17T06:32:57.910Z,-1.20
2018-03-17T06:35:28.510Z,-1.20
2018-03-17T06:37:58.322Z,-1.30
2018-03-17T06:40:28.560Z,-1.30
2018-03-17T06:42:57.510Z,-1.30
2018-03-17T06:45:28.298Z,-1.20
2018-03-17T06:47:58.686Z,-1.20
2018-03-17T06:50:27.308Z,-1.20
2018-03-17T06:52:57.902Z,-1.10
2018-03-17T06:55:27.682Z,-1.10
2018-03-17T06:57:58.312Z,-1.20
2018-03-17T07:00:27.686Z,-1.10
2018-03-17T07:02:57.388Z,-1.10
2018-03-17T07:05:28.026Z,-1.10
2018-03-17T07:07:57.609Z,-1.10
2018-03-17T07:10:27.573Z,-1.00
2018-03-17T07:12:59.893Z,-1.20
2018-03-17T07:15:28.494Z,-1.20
2018-03-17T07:17:58.687Z,-1.20
2018-03-17T07:20:27.877Z,-1.30
2018-03-17T07:22:58.386Z,-1.30
2018-03-17T07:25:27.541Z,-1.30
2018-03-17T07:27:57.627Z,-1.20
2018-03-17T07:30:35.837Z,-1.30
2018-03-17T07:33:03.342Z,-1.30
2018-03-17T07:35:31.653Z,-1.30
2018-03-17T07:37:59.162Z,-1.30
2018-03-17T07:40:28.954Z,-1.40
2018-03-17T07:42:57.513Z,-1.50
2018-03-17T07:45:29.125Z,-1.50
2018-03-17T07:47:58.842Z,-1.60
2018-03-17T07:50:27.409Z,-1.50
2018-03-17T07:52:57.518Z,-1.60
2018-03-17T07:55:27.792Z,-1.60
2018-03-17T07:57:58.629Z,-1.70
2018-03-17T08:00:28.862Z,-1.70
2018-03-17T08:02:57.890Z,-1.50
2018-03-17T08:05:27.557Z,-1.50
2018-03-17T08:07:58.041Z,-1.50
2018-03-17T08:10:27.627Z,-1.50
2018-03-17T08:13:00.698Z,-1.50
2018-03-17T08:15:28.293Z,-1.50
2018-03-17T08:17:58.006Z,-1.50
2018-03-17T08:20:26.685Z,-1.40
2018-03-17T08:22:56.698Z,-1.50
2018-03-17T08:25:26.022Z,-1.60
2018-03-17T08:27:55.699Z,-1.60
2018-03-17T08:30:24.270Z,-1.70
2018-03-17T08:33:02.966Z,-1.70
2018-03-17T08:35:30.473Z,-1.50
2018-03-17T08:37:58.102Z,-1.50
2018-03-17T08:40:25.880Z,-1.50
2018-03-17T08:42:55.081Z,-1.50
2018-03-17T08:45:23.491Z,-1.50
2018-03-17T08:47:51.373Z,-1.30
2018-03-17T08:50:30.228Z,-1.40
2018-03-17T08:53:09.246Z,-1.40
2018-03-17T08:55:37.768Z,-1.30
2018-03-17T08:58:05.305Z,-1.30
2018-03-17T09:00:32.812Z,-1.30
2018-03-17T09:03:00.338Z,-1.30
2018-03-17T09:05:28.619Z,-1.30
2018-03-17T09:07:56.219Z,-1.40
2018-03-17T09:10:24.502Z,-1.30
2018-03-17T09:12:52.412Z,-1.00
2018-03-17T09:15:20.907Z,-1.10
2018-03-17T09:17:55.242Z,-1.40
2018-03-17T09:20:23.306Z,-1.30
2018-03-17T09:22:51.286Z,-1.40
2018-03-17T09:25:19.892Z,-1.40
2018-03-17T09:27:48.662Z,-1.40
2018-03-17T09:30:17.833Z,-1.40
2018-03-17T09:32:47.845Z,-1.40
2018-03-17T09:35:17.008Z,-1.40
2018-03-17T09:37:47.587Z,-1.40
2018-03-17T09:40:17.216Z,-1.50
2018-03-17T09:42:49.349Z,-1.20
2018-03-17T09:45:23.773Z,-1.30
2018-03-17T09:47:55.260Z,-1.40
2018-03-17T09:50:26.014Z,-1.30
2018-03-17T09:52:56.035Z,-1.40
2018-03-17T09:55:26.594Z,-1.10
2018-03-17T09:57:55.810Z,-1.10
2018-03-17T10:00:26.142Z,-1.30
2018-03-17T10:02:54.952Z,-1.00
2018-03-17T10:05:22.602Z,-1.00
2018-03-17T10:07:50.882Z,-1.00
2018-03-17T10:10:19.970Z,-1.20
2018-03-17T10:12:50.023Z,-1.30
2018-03-17T10:15:19.551Z,-1.20
2018-03-17T10:17:49.893Z,-1.00
2018-03-17T10:20:20.016Z,-1.00
2018-03-17T10:22:49.846Z,-1.20
2018-03-17T10:25:20.138Z,-1.20
2018-03-17T10:27:50.710Z,-1.50
2018-03-17T10:30:20.155Z,-1.20
2018-03-17T10:32:50.883Z,-1.10
2018-03-17T10:35:20.001Z,-0.90
2018-03-17T10:37:49.718Z,-0.70
2018-03-17T10:40:19.288Z,-0.60
2018-03-17T10:42:49.062Z,-0.40
2018-03-17T10:45:18.873Z,-0.80
2018-03-17T10:47:49.110Z,-0.40
2018-03-17T10:50:18.741Z,-0.40
2018-03-17T10:52:49.723Z,-0.50
2018-03-17T10:55:19.082Z,-0.50
2018-03-17T10:57:49.168Z,-0.40
2018-03-17T11:00:29.176Z,-0.10
2018-03-17T11:02:56.673Z,0.00
2018-03-17T11:05:24.957Z,-0.60
2018-03-17T11:07:53.244Z,-0.70
2018-03-17T11:10:21.552Z,-0.50
2018-03-17T11:12:49.945Z,-0.50
2018-03-17T11:15:19.177Z,-0.30
2018-03-17T11:17:48.869Z,-0.50
2018-03-17T11:20:19.886Z,-0.30
2018-03-17T11:22:49.750Z,-0.30
2018-03-17T11:25:19.086Z,-0.40
2018-03-17T11:27:47.955Z,-0.30
2018-03-17T11:30:19.642Z,-0.30
2018-03-17T11:32:48.789Z,-0.40
2018-03-17T11:35:18.788Z,-0.20
2018-03-17T11:37:48.327Z,-0.40
2018-03-17T11:40:17.914Z,-0.10
2018-03-17T11:42:56.727Z,-0.20
2018-03-17T11:45:24.251Z,-0.40
2018-03-17T11:47:51.792Z,-0.70
2018-03-17T11:50:19.920Z,-0.50
2018-03-17T11:52:49.399Z,-0.40
2018-03-17T11:55:20.113Z,-0.30
2018-03-17T11:57:48.834Z,-0.30
2018-03-17T12:00:19.642Z,-0.30
2018-03-17T12:02:59.079Z,-0.30
2018-03-17T12:05:26.618Z,-0.20
2018-03-17T12:07:54.138Z,0.00
2018-03-17T12:10:21.642Z,-0.20
2018-03-17T12:12:49.254Z,-0.20
2018-03-17T12:15:18.825Z,-0.40
2018-03-17T12:17:48.778Z,-0.60
2018-03-17T12:20:18.007Z,-0.50
2018-03-17T12:22:48.180Z,-0.40
2018-03-17T12:25:26.893Z,-0.50
2018-03-17T12:27:54.447Z,-0.50
2018-03-17T12:30:21.955Z,-0.80
2018-03-17T12:32:49.834Z,-0.70
2018-03-17T12:35:18.833Z,-0.70
2018-03-17T12:37:49.407Z,-0.60
2018-03-17T12:40:21.617Z,-0.40
2018-03-17T12:42:49.869Z,-0.40
2018-03-17T12:45:19.214Z,-0.30
2018-03-17T12:47:48.203Z,-0.30
2018-03-17T12:50:19.219Z,-0.50
2018-03-17T12:52:48.177Z,-0.50
2018-03-17T12:55:19.576Z,-0.50
2018-03-17T12:57:48.855Z,-0.80
2018-03-17T13:00:18.927Z,-0.80
2018-03-17T13:02:48.215Z,-0.90
2018-03-17T13:05:17.749Z,-0.80
2018-03-17T13:07:48.101Z,-0.70
2018-03-17T13:10:21.533Z,-0.50
2018-03-17T13:12:50.082Z,-0.50
2018-03-17T13:15:32.722Z,-0.60
2018-03-17T13:18:00.273Z,-0.60
2018-03-17T13:20:28.571Z,-0.70
2018-03-17T13:23:13.739Z,-0.70
2018-03-17T13:25:47.227Z,-0.70
2018-03-17T13:28:26.977Z,-0.80
2018-03-17T13:30:54.501Z,-0.70
2018-03-17T13:33:22.015Z,-0.60
2018-03-17T13:36:09.313Z,-0.40
2018-03-17T13:38:45.590Z,-0.50
2018-03-17T13:41:19.041Z,-0.60
2018-03-17T13:43:49.593Z,-0.60
2018-03-17T13:46:31.165Z,-0.70
2018-03-17T13:48:59.047Z,-0.70
2018-03-17T13:51:26.611Z,-0.70
2018-03-17T13:53:54.138Z,-0.60
2018-03-17T13:56:21.657Z,-0.70
2018-03-17T13:58:49.949Z,-0.80
2018-03-17T14:01:19.441Z,-0.70
2018-03-17T14:03:51.156Z,-0.70
2018-03-17T14:06:18.741Z,-0.70
2018-03-17T14:09:07.561Z,-0.60
2018-03-17T14:11:46.515Z,-0.70
2018-03-17T14:14:26.046Z,-0.60
2018-03-17T14:16:53.627Z,-0.50
2018-03-17T14:19:21.138Z,-0.50
2018-03-17T14:21:48.666Z,-0.50
2018-03-17T14:24:16.698Z,-0.60
2018-03-17T14:26:46.119Z,-0.90
2018-03-17T14:29:15.998Z,-1.00
2018-03-17T14:31:45.865Z,-1.00
2018-03-17T14:34:15.313Z,-0.90
2018-03-17T14:36:53.229Z,-0.90
2018-03-17T14:39:20.794Z,-0.80
2018-03-17T14:41:48.486Z,-0.80
2018-03-17T14:44:16.774Z,-0.90
2018-03-17T14:46:44.382Z,-0.90
2018-03-17T14:49:13.295Z,-0.80
2018-03-17T14:51:43.899Z,-1.00
2018-03-17T14:54:11.570Z,-1.00
2018-03-17T14:56:41.347Z,-0.90
2018-03-17T14:59:10.754Z,-1.00
2018-03-17T15:01:42.737Z,-1.00
2018-03-17T15:04:14.582Z,-1.00
2018-03-17T15:06:54.606Z,-1.00
2018-03-17T15:09:22.920Z,-1.00
2018-03-17T15:11:50.470Z,-1.00
2018-03-17T15:14:18.760Z,-1.00
2018-03-17T15:16:46.430Z,-1.00
2018-03-17T15:19:15.620Z,-1.20
2018-03-17T15:21:45.758Z,-1.20
2018-03-17T15:24:15.384Z,-1.20
2018-03-17T15:26:45.325Z,-1.10
2018-03-17T15:29:14.450Z,-1.10
2018-03-17T15:31:46.186Z,-1.10
2018-03-17T15:34:15.426Z,-1.20
2018-03-17T15:36:45.864Z,-1.00
2018-03-17T15:39:15.731Z,-1.10
2018-03-17T15:41:46.082Z,-1.10
2018-03-17T15:44:16.121Z,-1.00
2018-03-17T15:46:46.436Z,-1.10
2018-03-17T15:49:16.151Z,-1.10
2018-03-17T15:51:46.293Z,-1.00
2018-03-17T15:54:26.049Z,-1.10
2018-03-17T15:56:53.557Z,-1.10
2018-03-17T15:59:21.841Z,-1.00
2018-03-17T16:01:49.337Z,-1.10
2018-03-17T16:04:17.725Z,-1.20
2018-03-17T16:06:47.877Z,-1.10
2018-03-17T16:09:17.505Z,-1.10
2018-03-17T16:11:48.282Z,-1.20
2018-03-17T16:14:21.873Z,-1.10
2018-03-17T16:16:49.375Z,-1.20
2018-03-17T16:19:17.814Z,-1.30
2018-03-17T16:21:48.959Z,-1.20
2018-03-17T16:24:18.574Z,-1.20
2018-03-17T16:26:59.106Z,-1.30
2018-03-17T16:29:30.625Z,-1.40
2018-03-17T16:32:01.662Z,-1.30
2018-03-17T16:34:34.538Z,-1.40
2018-03-17T16:37:02.265Z,-1.40
2018-03-17T16:39:42.054Z,-1.50
2018-03-17T16:42:09.692Z,-1.50
2018-03-17T16:44:37.953Z,-1.50
2018-03-17T16:47:05.474Z,-1.50
2018-03-17T16:49:35.702Z,-1.50
2018-03-17T16:52:03.984Z,-1.60
2018-03-17T16:54:32.993Z,-1.60
2018-03-17T16:57:03.441Z,-1.60
2018-03-17T16:59:31.228Z,-1.60
2018-03-17T17:02:03.037Z,-1.60
2018-03-17T17:04:33.019Z,-1.60
2018-03-17T17:07:02.714Z,-1.60
2018-03-17T17:09:32.117Z,-1.60
2018-03-17T17:12:04.338Z,-1.70
2018-03-17T17:14:33.770Z,-1.70
2018-03-17T17:17:04.137Z,-1.70
2018-03-17T17:19:34.122Z,-1.70
2018-03-17T17:22:03.085Z,-1.70
2018-03-17T17:24:33.985Z,-1.70
2018-03-17T17:27:02.984Z,-1.70
2018-03-17T17:29:34.242Z,-1.70
2018-03-17T17:32:03.882Z,-1.70
2018-03-17T17:34:34.785Z,-1.80
2018-03-17T17:37:13.186Z,-1.80
2018-03-17T17:39:40.687Z,-1.80
2018-03-17T17:42:08.205Z,-1.80
2018-03-17T17:44:36.484Z,-1.80
2018-03-17T17:47:05.362Z,-1.80
2018-03-17T17:49:34.465Z,-1.80
2018-03-17T17:52:03.949Z,-1.80
2018-03-17T17:54:34.262Z,-1.80
2018-03-17T17:57:04.158Z,-1.80
2018-03-17T17:59:33.904Z,-1.80
2018-03-17T18:02:05.128Z,-1.80
2018-03-17T18:04:37.785Z,-1.90
2018-03-17T18:07:06.024Z,-1.80
2018-03-17T18:09:34.161Z,-1.80
2018-03-17T18:12:04.999Z,-1.80
2018-03-17T18:14:34.417Z,-1.70
2018-03-17T18:17:05.222Z,-1.80
2018-03-17T18:19:35.103Z,-1.80
2018-03-17T18:22:05.602Z,-1.80
2018-03-17T18:24:35.380Z,-1.80
2018-03-17T18:27:06.723Z,-1.80
2018-03-17T18:29:34.393Z,-1.80
2018-03-17T18:32:02.507Z,-1.80
2018-03-17T18:34:31.754Z,-1.80
2018-03-17T18:37:02.190Z,-1.80
2018-03-17T18:39:30.936Z,-1.80
2018-03-17T18:42:00.180Z,-1.80
2018-03-17T18:44:30.734Z,-1.80
2018-03-17T18:46:59.660Z,-1.80
2018-03-17T18:49:30.273Z,-1.80
2018-03-17T18:51:59.089Z,-1.80
2018-03-17T18:54:28.943Z,-1.80
2018-03-17T18:56:56.931Z,-1.80
2018-03-17T18:59:26.778Z,-1.80
2018-03-17T19:01:57.955Z,-1.80
2018-03-17T19:04:29.895Z,-1.80
2018-03-17T19:06:59.376Z,-1.80
2018-03-17T19:09:30.552Z,-1.80
2018-03-17T19:12:08.854Z,-1.80
2018-03-17T19:14:36.515Z,-1.70
2018-03-17T19:17:04.024Z,-1.80
2018-03-17T19:19:32.561Z,-1.80
2018-03-17T19:22:00.854Z,-1.70
2018-03-17T19:24:29.134Z,-1.70
2018-03-17T19:26:57.402Z,-1.70
2018-03-17T19:29:26.295Z,-1.80
2018-03-17T19:31:55.463Z,-1.70
2018-03-17T19:34:24.835Z,-1.70
2018-03-17T19:36:53.706Z,-1.70
2018-03-17T19:39:25.698Z,-1.70
2018-03-17T19:41:57.073Z,-1.70
2018-03-17T19:44:27.066Z,-1.70
2018-03-17T19:47:05.278Z,-1.70
2018-03-17T19:49:32.818Z,-1.70
2018-03-17T19:52:01.092Z,-1.70
2018-03-17T19:54:28.602Z,-1.70
2018-03-17T19:56:56.933Z,-1.70
2018-03-17T19:59:26.385Z,-1.70
2018-03-17T20:01:56.078Z,-1.70
2018-03-17T20:04:25.722Z,-1.70
2018-03-17T20:06:55.672Z,-1.70
2018-03-17T20:09:25.238Z,-1.70
2018-03-17T20:11:57.305Z,-1.70
2018-03-17T20:14:25.865Z,-1.70
2018-03-17T20:16:54.872Z,-1.70
2018-03-17T20:19:23.717Z,-1.70
2018-03-17T20:21:53.641Z,-1.70
2018-03-17T20:24:23.352Z,-1.70
2018-03-17T20:26:54.830Z,-1.70
2018-03-17T20:29:24.641Z,-1.70
2018-03-17T20:31:56.099Z,-1.70
2018-03-17T20:34:26.146Z,-1.70
2018-03-17T20:36:54.655Z,-1.60
2018-03-17T20:39:33.592Z,-1.70
2018-03-17T20:42:01.117Z,-1.60
2018-03-17T20:44:29.403Z,-1.70
2018-03-17T20:46:57.682Z,-1.70
2018-03-17T20:49:26.808Z,-1.70
2018-03-17T20:51:56.225Z,-1.70
2018-03-17T20:54:25.654Z,-1.70
2018-03-17T20:56:56.498Z,-1.60
2018-03-17T20:59:26.621Z,-1.60
2018-03-17T21:01:55.949Z,-1.60
2018-03-17T21:04:34.479Z,-1.60
2018-03-17T21:07:02.038Z,-1.60
2018-03-17T21:09:29.533Z,-1.60
2018-03-17T21:11:57.422Z,-1.60
2018-03-17T21:14:26.907Z,-1.60
2018-03-17T21:17:04.978Z,-1.60
2018-03-17T21:19:32.753Z,-1.60
2018-03-17T21:22:00.374Z,-1.60
2018-03-17T21:24:28.664Z,-1.60
2018-03-17T21:26:57.551Z,-1.70
2018-03-17T21:29:26.870Z,-1.70
2018-03-17T21:31:56.923Z,-1.70
2018-03-17T21:34:26.357Z,-1.70
2018-03-17T21:36:55.383Z,-1.70
2018-03-17T21:39:34.950Z,-1.80
2018-03-17T21:42:02.457Z,-1.80
2018-03-17T21:44:30.838Z,-1.80
2018-03-17T21:46:59.104Z,-1.80
2018-03-17T21:49:26.942Z,-1.90
2018-03-17T21:51:56.773Z,-1.90
2018-03-17T21:54:26.354Z,-1.90
2018-03-17T21:56:55.966Z,-1.90
2018-03-17T21:59:25.545Z,-1.90
2018-03-17T22:01:54.740Z,-1.90
2018-03-17T22:04:23.086Z,-1.90
2018-03-17T22:06:54.216Z,-2.00
2018-03-17T22:09:24.127Z,-1.90
2018-03-17T22:12:04.129Z,-1.90
2018-03-17T22:14:31.717Z,-1.90
2018-03-17T22:17:00.023Z,-1.90
2018-03-17T22:19:27.586Z,-1.90
2018-03-17T22:21:57.355Z,-1.90
2018-03-17T22:24:27.493Z,-1.90
2018-03-17T22:26:57.757Z,-1.90
2018-03-17T22:29:28.123Z,-1.90
2018-03-17T22:31:57.994Z,-1.90
2018-03-17T22:34:27.598Z,-1.90
2018-03-17T22:36:57.762Z,-1.90
2018-03-17T22:39:28.936Z,-1.90
2018-03-17T22:41:58.154Z,-1.90
2018-03-17T22:44:28.233Z,-1.90
2018-03-17T22:46:58.382Z,-1.90
2018-03-17T22:49:29.299Z,-1.80
2018-03-17T22:51:58.943Z,-1.80
2018-03-17T22:54:27.970Z,-1.80
2018-03-17T22:56:59.300Z,-1.70
2018-03-17T22:59:29.212Z,-1.70
2018-03-17T23:01:59.180Z,-1.60
2018-03-17T23:04:29.199Z,-1.70
2018-03-17T23:06:59.353Z,-1.60
2018-03-17T23:09:28.304Z,-1.60
2018-03-17T23:11:58.029Z,-1.60
2018-03-17T23:14:28.263Z,-1.60
2018-03-17T23:16:58.487Z,-1.60
2018-03-17T23:19:29.025Z,-1.60
2018-03-17T23:21:59.336Z,-1.60
2018-03-17T23:24:27.667Z,-1.60
2018-03-17T23:26:59.349Z,-1.60
2018-03-17T23:29:28.975Z,-1.60
2018-03-17T23:31:58.864Z,-1.60
2018-03-17T23:34:29.401Z,-1.50
2018-03-17T23:36:59.298Z,-1.50
2018-03-17T23:39:29.315Z,-1.60
2018-03-17T23:41:59.618Z,-1.50
2018-03-17T23:44:38.347Z,-1.50
2018-03-17T23:47:05.876Z,-1.50
2018-03-17T23:49:33.534Z,-1.50
2018-03-17T23:52:01.814Z,-1.50
2018-03-17T23:54:29.608Z,-1.50
2018-03-17T23:56:57.558Z,-1.50
2018-03-17T23:59:36.388Z,-1.50
